Time;durP1;ratioP1;P1;durP2;ratioP2;P2;SDS_P1;SDS_P2;PMS_P1;PMS_P2;Temp;Humidity;BMP_temperature;BMP_pressure;BME280_temperature;BME280_humidity;BME280_pressure;Samples;Min_cycle;Max_cycle;Signal;HPM_P1;HPM_P2
2021/05/23 00:00:00;;;;;;;3.30;1.50;;;;;;;11.23;97.89;99946.88;5207180;28;20087;-80
2021/05/23 00:02:30;;;;;;;2.30;1.60;;;;;;;11.20;97.33;99949.63;5215062;28;20025;-79
2021/05/23 00:05:01;;;;;;;4.10;1.95;;;;;;;11.17;96.59;99949.78;5216686;28;20059;-79
2021/05/23 00:07:32;;;;;;;3.60;1.70;;;;;;;11.09;97.87;99948.47;5201449;28;20035;-80
2021/05/23 00:10:05;;;;;;;4.80;1.80;;;;;;;11.06;97.82;99953.81;5211706;28;20033;-80
2021/05/23 00:12:35;;;;;;;2.92;1.98;;;;;;;11.09;97.96;99949.28;5214524;28;20471;-79
2021/05/23 00:15:07;;;;;;;4.47;1.73;;;;;;;11.16;97.46;99944.63;5211469;28;20116;-79
2021/05/23 00:17:37;;;;;;;3.70;1.70;;;;;;;11.13;97.82;99950.81;5195683;28;20049;-79
2021/05/23 00:20:09;;;;;;;3.70;1.70;;;;;;;11.11;98.08;99949.22;5211482;28;20029;-79
2021/05/23 00:22:39;;;;;;;3.15;1.80;;;;;;;11.15;98.44;99948.16;5217530;28;20596;-79
2021/05/23 00:25:13;;;;;;;5.38;1.80;;;;;;;11.16;96.74;99947.22;5221277;28;20032;-79
2021/05/23 00:27:43;;;;;;;2.35;1.60;;;;;;;11.30;96.62;99944.81;5212021;28;20546;-79
2021/05/23 00:30:16;;;;;;;4.93;1.60;;;;;;;11.17;96.33;99946.31;5212128;28;20107;-79
2021/05/23 00:32:46;;;;;;;2.58;1.50;;;;;;;11.13;96.75;99942.16;5215688;28;20022;-80
2021/05/23 00:35:17;;;;;;;3.08;1.40;;;;;;;11.09;96.02;99951.91;5229268;28;20115;-79
2021/05/23 00:37:48;;;;;;;2.00;1.25;;;;;;;10.94;97.73;99948.31;5226578;28;20060;-80
2021/05/23 00:40:19;;;;;;;2.33;1.27;;;;;;;11.07;96.74;99947.69;5223368;28;20032;-79
2021/05/23 00:42:49;;;;;;;2.05;1.08;;;;;;;11.07;96.02;99945.06;5213153;28;20037;-80
2021/05/23 00:45:20;;;;;;;1.10;1.00;;;;;;;11.16;95.52;99948.09;5220225;28;20036;-80
2021/05/23 00:47:56;;;;;;;2.55;1.10;;;;;;;11.21;96.03;99946.09;5222757;28;20064;-80
2021/05/23 00:50:27;;;;;;;1.73;0.95;;;;;;;11.18;95.96;99950.63;5200478;28;20395;-79
2021/05/23 00:53:00;;;;;;;2.28;1.02;;;;;;;11.14;96.46;99946.47;5216885;28;20029;-80
2021/05/23 00:55:31;;;;;;;1.92;0.90;;;;;;;11.18;96.53;99954.09;5221901;28;20031;-80
2021/05/23 00:58:01;;;;;;;2.15;1.00;;;;;;;11.16;96.29;99945.47;5220062;28;20029;-80
2021/05/23 01:00:41;;;;;;;1.30;0.90;;;;;;;11.12;96.52;99945.69;5214336;28;20033;-79
2021/05/23 01:03:27;;;;;;;2.10;1.00;;;;;;;11.11;95.54;99950.06;5210452;28;20117;-80
2021/05/23 01:05:58;;;;;;;0.85;0.70;;;;;;;11.09;95.58;99943.22;5221621;28;20024;-79
2021/05/23 01:08:29;;;;;;;1.60;0.77;;;;;;;11.02;96.20;99947.03;5213979;28;20044;-80
2021/05/23 01:11:08;;;;;;;1.00;0.88;;;;;;;11.09;95.41;99944.06;5209810;28;20033;-79
2021/05/23 01:13:57;;;;;;;2.50;0.90;;;;;;;11.07;96.12;99940.66;5208492;28;20021;-79
2021/05/23 01:16:37;;;;;;;2.35;0.80;;;;;;;11.08;95.49;99946.75;5208495;28;20025;-80
2021/05/23 01:19:29;;;;;;;1.90;0.80;;;;;;;11.05;95.95;99942.50;5202016;28;20393;-79
2021/05/23 01:22:17;;;;;;;2.05;0.73;;;;;;;10.93;96.47;99946.63;5208682;28;20060;-79
2021/05/23 01:25:19;;;;;;;1.40;0.68;;;;;;;10.96;96.57;99943.84;5222406;28;20071;-80
2021/05/23 01:27:52;;;;;;;1.65;0.80;;;;;;;10.96;96.62;99939.50;5193423;28;20037;-79
2021/05/23 01:30:34;;;;;;;2.08;0.90;;;;;;;11.04;95.87;99939.97;5210909;28;20025;-79
2021/05/23 01:33:06;;;;;;;2.40;0.90;;;;;;;11.10;96.62;99937.91;5206873;28;20022;-79
2021/05/23 01:35:40;;;;;;;1.52;0.80;;;;;;;11.14;96.09;99947.28;5217368;28;20025;-79
2021/05/23 01:38:15;;;;;;;1.98;0.93;;;;;;;11.10;95.70;99942.31;5214107;28;20478;-79
2021/05/23 01:40:47;;;;;;;;;;;;;;;11.01;97.32;99955.81;5215119;28;20037;-80
2021/05/23 01:43:19;;;;;;;5.45;0.80;;;;;;;11.02;97.39;99946.22;5216108;28;20011;-80
2021/05/23 01:45:49;;;;;;;1.88;0.90;;;;;;;10.88;97.55;99949.44;5214430;28;20566;-80
2021/05/23 01:48:20;;;;;;;2.35;0.80;;;;;;;11.03;96.92;99949.59;5216236;28;20120;-80
2021/05/23 01:50:51;;;;;;;2.75;0.93;;;;;;;11.12;96.78;99956.97;5290259;23;20093;-77
2021/05/23 01:53:21;;;;;;;3.67;1.30;;;;;;;11.05;95.78;99950.38;5259409;28;20517;-77
2021/05/23 01:55:52;;;;;;;2.88;1.23;;;;;;;11.22;96.11;99958.25;5259030;28;20039;-77
2021/05/23 01:58:22;;;;;;;3.40;1.38;;;;;;;11.17;96.65;99951.53;5267395;28;20086;-76
2021/05/23 02:00:53;;;;;;;5.40;1.20;;;;;;;11.19;96.19;99957.53;5276980;28;20081;-77
2021/05/23 02:03:24;;;;;;;3.20;1.30;;;;;;;11.24;95.55;99951.16;5273168;28;20111;-77
2021/05/23 02:05:57;;;;;;;3.83;1.30;;;;;;;11.28;95.91;99952.72;5266505;28;20052;-77
2021/05/23 02:08:29;;;;;;;3.72;1.70;;;;;;;11.36;95.78;99942.75;5275109;28;20028;-76
2021/05/23 02:11:05;;;;;;;3.97;1.38;;;;;;;11.25;96.36;99949.41;5278518;28;20629;-77
2021/05/23 02:13:37;;;;;;;5.10;1.33;;;;;;;11.38;96.00;99946.13;5272456;28;20046;-77
2021/05/23 02:16:08;;;;;;;3.58;1.40;;;;;;;11.34;96.03;99941.09;5277645;28;20412;-77
2021/05/23 02:18:38;;;;;;;4.05;1.38;;;;;;;11.22;96.20;99939.94;5275883;28;20063;-77
2021/05/23 02:21:08;;;;;;;2.55;0.90;;;;;;;11.26;96.53;99944.09;5277003;28;20881;-76
2021/05/23 02:23:49;;;;;;;2.20;1.10;;;;;;;11.28;96.58;99942.25;5265666;28;20473;-77
2021/05/23 02:26:20;;;;;;;5.18;0.90;;;;;;;11.23;97.00;99940.78;5274390;28;20036;-76
2021/05/23 02:28:51;;;;;;;3.25;0.90;;;;;;;11.32;95.31;99941.19;5275977;28;20081;-77
2021/05/23 02:31:21;;;;;;;1.52;0.82;;;;;;;11.33;96.10;99944.66;5274682;28;20062;-77
2021/05/23 02:33:51;;;;;;;4.05;1.30;;;;;;;11.35;97.06;99935.81;5275661;28;20019;-77
2021/05/23 02:36:22;;;;;;;3.25;1.00;;;;;;;11.49;95.69;99937.75;5270326;28;20031;-77
2021/05/23 02:38:52;;;;;;;2.97;0.93;;;;;;;11.50;96.92;99940.31;5274648;28;20416;-77
2021/05/23 02:41:23;;;;;;;3.45;0.93;;;;;;;11.30;98.16;99937.78;5274315;28;20023;-77
2021/05/23 02:43:53;;;;;;;1.73;0.80;;;;;;;11.27;98.98;99943.19;5275934;28;20076;-77
2021/05/23 02:46:23;;;;;;;4.35;1.10;;;;;;;11.33;98.73;99939.41;5274514;28;20026;-77
2021/05/23 02:48:57;;;;;;;3.20;1.05;;;;;;;11.24;99.14;99932.88;5275798;28;20074;-77
2021/05/23 02:51:27;;;;;;;5.03;1.30;;;;;;;11.48;98.03;99933.44;5272882;28;20023;-77
2021/05/23 02:53:57;;;;;;;7.25;1.70;;;;;;;11.39;97.85;99945.19;5270625;28;20677;-77
2021/05/23 02:56:27;;;;;;;5.55;1.85;;;;;;;11.21;98.21;99947.84;5273680;28;20073;-77
2021/05/23 02:58:58;;;;;;;3.67;1.48;;;;;;;11.16;100.00;99947.22;5278071;28;20031;-76
2021/05/23 03:01:28;;;;;;;6.45;1.60;;;;;;;11.02;98.37;99940.97;5272909;28;20028;-77
2021/05/23 03:03:58;;;;;;;4.53;1.60;;;;;;;10.95;99.18;99950.00;5274108;28;20067;-77
2021/05/23 03:06:28;;;;;;;2.95;1.15;;;;;;;11.02;98.59;99944.41;5266604;28;20023;-77
2021/05/23 03:08:59;;;;;;;2.72;0.98;;;;;;;10.98;98.40;99944.63;5273227;28;20124;-77
2021/05/23 03:11:29;;;;;;;5.97;1.30;;;;;;;10.96;99.38;99938.63;5273754;28;20057;-77
2021/05/23 03:13:59;;;;;;;3.88;1.05;;;;;;;10.99;98.10;99941.13;5268855;28;20535;-77
2021/05/23 03:16:30;;;;;;;5.00;1.13;;;;;;;11.09;98.63;99946.66;5272681;28;20023;-77
2021/05/23 03:19:00;;;;;;;3.20;1.25;;;;;;;11.09;97.66;99954.53;5271673;28;20103;-77
2021/05/23 03:21:30;;;;;;;3.90;1.30;;;;;;;11.08;98.96;99955.44;5272620;28;20020;-77
2021/05/23 03:24:01;;;;;;;3.83;1.20;;;;;;;11.12;98.66;99959.59;5265038;28;20465;-77
2021/05/23 03:26:32;;;;;;;3.92;1.20;;;;;;;11.13;98.99;99960.47;5273369;28;20032;-77
2021/05/23 03:29:02;;;;;;;3.75;1.20;;;;;;;11.10;98.32;99966.66;5277284;28;20031;-77
2021/05/23 03:31:33;;;;;;;4.32;1.25;;;;;;;11.25;97.81;99968.56;5273317;28;20027;-77
2021/05/23 03:34:03;;;;;;;5.93;1.20;;;;;;;11.16;97.57;99969.00;5269972;28;20028;-76
2021/05/23 03:36:33;;;;;;;4.18;1.30;;;;;;;11.13;98.25;99966.53;5271054;28;20107;-77
2021/05/23 03:39:04;;;;;;;4.57;1.10;;;;;;;11.30;97.57;99974.41;5274692;28;20439;-77
2021/05/23 03:41:35;;;;;;;2.95;1.00;;;;;;;11.23;98.06;99978.25;5273841;28;20035;-77
2021/05/23 03:44:05;;;;;;;3.60;1.00;;;;;;;11.28;97.37;99980.66;5276495;28;20111;-77
2021/05/23 03:46:36;;;;;;;4.00;0.93;;;;;;;11.29;96.76;99988.41;5274152;28;20020;-77
2021/05/23 03:49:06;;;;;;;6.28;1.40;;;;;;;11.43;96.21;99985.97;5275692;28;20023;-76
2021/05/23 03:51:36;;;;;;;3.58;1.00;;;;;;;11.38;96.42;99993.22;5272440;28;20027;-76
2021/05/23 03:54:07;;;;;;;2.20;1.02;;;;;;;11.32;98.22;100003.13;5264396;28;20027;-77
2021/05/23 03:56:37;;;;;;;5.97;1.45;;;;;;;11.40;97.61;99990.50;5273760;28;20102;-77
2021/05/23 03:59:07;;;;;;;4.95;1.20;;;;;;;11.48;96.75;100004.91;5275827;28;20027;-77
2021/05/23 04:01:38;;;;;;;3.63;1.25;;;;;;;11.46;97.93;100005.94;5273177;28;20384;-77
2021/05/23 04:04:10;;;;;;;3.40;1.20;;;;;;;11.32;99.80;100008.34;5268710;28;20032;-77
2021/05/23 04:06:40;;;;;;;4.50;1.25;;;;;;;11.44;100.00;100003.38;5265334;28;20035;-77
2021/05/23 04:09:10;;;;;;;5.65;1.30;;;;;;;11.36;100.00;100013.38;5275312;28;20481;-76
2021/05/23 04:11:44;;;;;;;3.55;1.10;;;;;;;11.34;100.00;100017.84;5276804;28;20027;-76
2021/05/23 04:14:14;;;;;;;3.60;1.40;;;;;;;11.11;100.00;100018.06;5274559;28;20043;-77
2021/05/23 04:16:44;;;;;;;4.70;1.60;;;;;;;11.24;100.00;100021.78;5272413;28;20024;-76
2021/05/23 04:19:15;;;;;;;5.30;1.77;;;;;;;11.04;100.00;100027.13;5274331;28;20024;-77
2021/05/23 04:21:45;;;;;;;7.30;1.70;;;;;;;11.12;100.00;100038.06;5271241;28;20032;-77
2021/05/23 04:24:15;;;;;;;6.07;1.80;;;;;;;11.03;100.00;100045.47;5268142;28;20675;-77
2021/05/23 04:26:46;;;;;;;7.68;2.10;;;;;;;10.89;100.00;100052.25;5274579;28;20230;-77
2021/05/23 04:29:16;;;;;;;6.80;2.00;;;;;;;10.87;100.00;100051.47;5275080;28;20088;-77
2021/05/23 04:31:46;;;;;;;7.28;1.80;;;;;;;10.68;100.00;100056.66;5273538;28;20055;-77
2021/05/23 04:34:16;;;;;;;7.15;1.95;;;;;;;10.90;100.00;100060.03;5268944;28;20692;-76
2021/05/23 04:36:47;;;;;;;6.50;1.73;;;;;;;11.02;100.00;100057.72;5246047;28;20020;-77
2021/05/23 04:39:17;;;;;;;3.50;1.40;;;;;;;10.87;100.00;100062.75;5273941;28;20417;-77
2021/05/23 04:41:48;;;;;;;5.63;1.60;;;;;;;10.87;100.00;100067.16;5274363;28;20112;-77
2021/05/23 04:44:18;;;;;;;4.35;1.60;;;;;;;10.93;100.00;100072.97;5273718;28;20469;-77
2021/05/23 04:46:48;;;;;;;4.00;1.45;;;;;;;10.74;100.00;100076.47;5274860;28;21242;-77
2021/05/23 04:49:18;;;;;;;6.40;2.00;;;;;;;10.61;100.00;100081.38;5272909;28;20059;-77
2021/05/23 04:51:49;;;;;;;3.03;2.05;;;;;;;10.82;100.00;100082.22;5271246;28;20036;-77
2021/05/23 04:54:19;;;;;;;4.50;1.90;;;;;;;10.74;100.00;100079.94;5277323;28;20136;-77
2021/05/23 04:56:49;;;;;;;4.20;1.73;;;;;;;10.90;100.00;100090.56;5273320;28;20058;-77
2021/05/23 04:59:20;;;;;;;4.23;2.20;;;;;;;11.14;100.00;100090.28;5274679;28;20075;-77
2021/05/23 05:01:50;;;;;;;3.88;2.03;;;;;;;11.20;100.00;100098.72;5271483;28;20270;-77
2021/05/23 05:04:20;;;;;;;4.50;1.90;;;;;;;11.04;100.00;100096.84;5265598;28;20504;-77
2021/05/23 05:06:51;;;;;;;3.03;1.65;;;;;;;11.06;100.00;100103.72;5266144;28;20032;-77
2021/05/23 05:09:21;;;;;;;3.92;1.80;;;;;;;11.09;100.00;100105.34;5273126;28;20173;-77
2021/05/23 05:11:51;;;;;;;5.78;1.70;;;;;;;11.27;100.00;100115.81;5274445;28;20111;-77
2021/05/23 05:14:22;;;;;;;3.70;1.80;;;;;;;11.25;100.00;100122.88;5273942;28;20016;-77
2021/05/23 05:16:52;;;;;;;3.42;1.70;;;;;;;11.17;100.00;100119.78;5278664;28;20051;-77
2021/05/23 05:19:22;;;;;;;4.53;2.08;;;;;;;11.32;100.00;100121.72;5276950;28;20520;-77
2021/05/23 05:21:53;;;;;;;3.35;2.17;;;;;;;11.19;100.00;100125.78;5270340;28;20027;-77
2021/05/23 05:24:23;;;;;;;4.10;2.20;;;;;;;11.21;100.00;100126.56;5266548;28;20020;-77
2021/05/23 05:26:54;;;;;;;5.32;2.70;;;;;;;11.55;100.00;100131.94;5279307;28;20504;-77
2021/05/23 05:29:24;;;;;;;6.53;2.92;;;;;;;11.50;100.00;100139.19;5276241;28;20080;-77
2021/05/23 05:31:55;;;;;;;5.10;3.88;;;;;;;11.51;100.00;100145.25;5278841;28;20030;-77
2021/05/23 05:34:25;;;;;;;6.07;3.50;;;;;;;11.40;100.00;100143.13;5250390;28;20050;-77
2021/05/23 05:36:55;;;;;;;5.68;2.72;;;;;;;11.40;100.00;100148.34;5280863;28;20397;-77
2021/05/23 05:39:25;;;;;;;4.20;2.75;;;;;;;11.15;100.00;100153.00;5279442;28;20051;-77
2021/05/23 05:41:56;;;;;;;5.60;2.83;;;;;;;11.24;100.00;100157.81;5275338;28;20039;-77
2021/05/23 05:44:27;;;;;;;5.80;3.17;;;;;;;11.38;100.00;100160.66;5277369;28;20024;-77
2021/05/23 05:46:57;;;;;;;8.40;3.50;;;;;;;11.23;100.00;100166.56;5278950;28;20027;-77
2021/05/23 05:49:27;;;;;;;8.18;4.07;;;;;;;11.24;100.00;100162.22;5275598;28;20024;-77
2021/05/23 05:51:57;;;;;;;5.90;2.80;;;;;;;11.30;100.00;100169.78;5278505;28;20517;-75
2021/05/23 05:54:28;;;;;;;13.13;7.03;;;;;;;11.08;100.00;100166.44;5282287;28;20015;-74
2021/05/23 05:57:00;;;;;;;42.97;24.15;;;;;;;11.18;100.00;100173.78;5280054;28;20024;-74
2021/05/23 05:59:30;;;;;;;30.48;18.98;;;;;;;11.17;100.00;100176.47;5288782;28;20031;-75
2021/05/23 06:02:00;;;;;;;14.43;9.18;;;;;;;11.04;100.00;100185.75;5284438;28;20476;-75
2021/05/23 06:04:31;;;;;;;8.68;5.10;;;;;;;10.92;100.00;100181.06;5283139;28;20088;-76
2021/05/23 06:07:01;;;;;;;5.72;3.50;;;;;;;11.30;100.00;100188.91;5275374;28;20027;-77
2021/05/23 06:09:31;;;;;;;5.70;3.20;;;;;;;11.21;100.00;100186.72;5284076;28;20071;-76
2021/05/23 06:12:02;;;;;;;8.38;3.35;;;;;;;11.40;100.00;100187.59;5282739;28;20032;-76
2021/05/23 06:14:32;;;;;;;5.63;3.50;;;;;;;11.29;100.00;100192.44;5280892;28;20085;-76
2021/05/23 06:17:02;;;;;;;6.35;3.65;;;;;;;11.32;100.00;100192.34;5275169;28;20054;-76
2021/05/23 06:19:33;;;;;;;7.40;3.80;;;;;;;11.15;100.00;100194.00;5278484;28;20085;-76
2021/05/23 06:22:03;;;;;;;6.93;3.40;;;;;;;11.19;100.00;100201.66;5273408;28;20539;-76
2021/05/23 06:24:33;;;;;;;17.88;11.10;;;;;;;11.12;100.00;100204.59;5266808;28;20051;-76
2021/05/23 06:27:04;;;;;;;38.70;22.83;;;;;;;11.02;100.00;100212.91;5277464;28;20488;-76
2021/05/23 06:29:34;;;;;;;17.85;10.98;;;;;;;10.86;100.00;100217.91;5275586;28;20032;-75
2021/05/23 06:32:06;;;;;;;20.20;14.40;;;;;;;10.86;100.00;100220.53;5277625;28;20026;-75
2021/05/23 06:34:36;;;;;;;14.20;8.55;;;;;;;10.98;100.00;100224.38;5270632;28;20028;-76
2021/05/23 06:37:07;;;;;;;7.80;5.68;;;;;;;10.98;100.00;100224.38;5275952;28;20042;-76
2021/05/23 06:39:38;;;;;;;6.65;4.13;;;;;;;11.25;100.00;100224.91;5277357;28;20028;-75
2021/05/23 06:42:09;;;;;;;6.90;3.80;;;;;;;11.20;100.00;100229.50;5275471;28;20876;-76
2021/05/23 06:44:40;;;;;;;6.13;3.40;;;;;;;11.15;100.00;100226.25;5276677;28;20028;-76
2021/05/23 06:47:10;;;;;;;5.45;3.45;;;;;;;11.07;100.00;100233.56;5275802;28;20504;-76
2021/05/23 06:49:41;;;;;;;4.88;3.20;;;;;;;11.19;100.00;100246.09;5276333;28;20560;-76
2021/05/23 06:52:11;;;;;;;6.28;3.22;;;;;;;11.12;100.00;100238.59;5272630;28;20038;-76
2021/05/23 06:54:41;;;;;;;5.40;3.13;;;;;;;11.05;100.00;100242.38;5266801;28;20020;-75
2021/05/23 06:57:12;;;;;;;5.07;2.80;;;;;;;11.14;100.00;100249.84;5276283;28;20046;-75
2021/05/23 06:59:42;;;;;;;4.30;2.50;;;;;;;11.25;100.00;100243.22;5275833;28;20088;-75
2021/05/23 07:02:12;;;;;;;3.83;2.40;;;;;;;11.12;100.00;100247.28;5275668;28;20427;-76
2021/05/23 07:04:42;;;;;;;4.47;2.33;;;;;;;11.08;100.00;100250.94;5271152;28;20024;-76
2021/05/23 07:07:13;;;;;;;4.70;2.33;;;;;;;11.05;100.00;100252.81;5274790;28;20035;-75
2021/05/23 07:09:43;;;;;;;4.10;2.60;;;;;;;11.02;100.00;100257.34;5271847;28;20107;-76
2021/05/23 07:12:13;;;;;;;4.25;2.50;;;;;;;11.20;100.00;100253.03;5271751;28;20733;-76
2021/05/23 07:14:44;;;;;;;4.25;2.50;;;;;;;11.23;100.00;100258.13;5275867;28;20028;-75
2021/05/23 07:17:14;;;;;;;3.88;2.40;;;;;;;11.28;100.00;100260.56;5276297;28;20483;-75
2021/05/23 07:19:44;;;;;;;4.30;2.50;;;;;;;11.50;100.00;100259.56;5276267;28;20036;-75
2021/05/23 07:22:15;;;;;;;3.40;2.38;;;;;;;11.61;100.00;100257.31;5270036;28;20024;-75
2021/05/23 07:24:45;;;;;;;5.22;2.58;;;;;;;11.85;100.00;100258.84;5267103;28;20193;-76
2021/05/23 07:27:16;;;;;;;3.60;2.20;;;;;;;11.69;100.00;100264.84;5274862;28;20516;-76
2021/05/23 07:29:46;;;;;;;3.20;2.17;;;;;;;11.74;100.00;100263.72;5276146;28;20638;-76
2021/05/23 07:32:17;;;;;;;6.72;2.33;;;;;;;11.92;100.00;100267.28;5273663;28;20104;-75
2021/05/23 07:34:47;;;;;;;5.18;2.70;;;;;;;11.75;100.00;100272.44;5263765;28;20020;-76
2021/05/23 07:37:17;;;;;;;4.95;2.38;;;;;;;11.86;100.00;100278.00;5266551;28;20032;-75
2021/05/23 07:39:48;;;;;;;6.15;3.00;;;;;;;11.76;100.00;100279.38;5272581;28;20031;-75
2021/05/23 07:42:18;;;;;;;4.68;2.65;;;;;;;12.29;100.00;100275.94;5275606;28;20100;-75
2021/05/23 07:44:48;;;;;;;4.22;2.67;;;;;;;12.28;100.00;100271.63;5274359;28;20795;-76
2021/05/23 07:47:18;;;;;;;4.90;3.20;;;;;;;12.24;100.00;100277.94;5275692;28;20036;-75
2021/05/23 07:49:49;;;;;;;5.53;3.20;;;;;;;12.10;100.00;100282.97;5274964;28;20405;-75
2021/05/23 07:52:19;;;;;;;4.35;2.97;;;;;;;12.41;100.00;100288.47;5271709;28;20040;-75
2021/05/23 07:54:49;;;;;;;4.57;3.10;;;;;;;12.68;100.00;100286.31;5267457;28;20034;-75
2021/05/23 07:57:20;;;;;;;4.70;2.70;;;;;;;12.92;100.00;100285.94;5274156;28;20767;-75
2021/05/23 07:59:50;;;;;;;5.65;2.92;;;;;;;13.03;100.00;100296.81;5275330;28;20338;-75
2021/05/23 08:02:20;;;;;;;4.70;2.75;;;;;;;13.52;100.00;100291.59;5273033;28;20442;-75
2021/05/23 08:04:51;;;;;;;5.25;2.75;;;;;;;14.69;96.72;100297.41;5264498;28;20031;-75
2021/05/23 08:07:21;;;;;;;3.75;2.00;;;;;;;15.25;96.59;100290.59;5267869;28;20055;-76
2021/05/23 08:09:52;;;;;;;3.60;1.70;;;;;;;15.42;91.86;100293.97;5271248;28;20042;-76
2021/05/23 08:12:22;;;;;;;3.53;1.65;;;;;;;16.15;88.22;100292.91;5271026;28;20028;-75
2021/05/23 08:14:52;;;;;;;2.55;1.50;;;;;;;16.35;87.02;100296.03;5275092;28;20570;-75
2021/05/23 08:17:23;;;;;;;3.90;1.80;;;;;;;16.18;86.19;100301.50;5272534;28;20464;-76
2021/05/23 08:19:53;;;;;;;3.75;1.70;;;;;;;16.21;85.68;100298.66;5275171;28;20511;-76
2021/05/23 08:22:23;;;;;;;3.63;1.80;;;;;;;16.69;88.75;100300.84;5271591;28;20494;-76
2021/05/23 08:24:54;;;;;;;4.43;1.60;;;;;;;17.66;80.26;100301.31;5263888;28;20020;-76
2021/05/23 08:27:24;;;;;;;3.93;1.60;;;;;;;17.13;80.69;100296.97;5276049;28;20038;-76
2021/05/23 08:29:54;;;;;;;3.38;1.63;;;;;;;16.24;84.80;100313.44;5272649;28;20274;-76
2021/05/23 08:32:26;;;;;;;3.20;1.30;;;;;;;16.10;83.46;100316.97;5272682;28;20070;-76
2021/05/23 08:34:56;;;;;;;3.85;1.45;;;;;;;15.69;86.05;100313.34;5265870;28;20111;-75
2021/05/23 08:37:26;;;;;;;3.00;1.40;;;;;;;15.38;86.92;100313.50;5265581;28;20541;-76
2021/05/23 08:39:56;;;;;;;2.73;1.43;;;;;;;15.14;88.09;100316.69;5264330;28;20405;-76
2021/05/23 08:42:27;;;;;;;4.63;1.50;;;;;;;14.58;91.82;100328.75;5265432;28;20266;-77
2021/05/23 08:44:57;;;;;;;3.53;1.60;;;;;;;14.55;90.39;100324.50;5260228;28;20059;-77
2021/05/23 08:47:28;;;;;;;3.63;1.63;;;;;;;14.51;92.62;100335.28;5271996;28;20083;-77
2021/05/23 08:49:59;;;;;;;2.50;1.55;;;;;;;14.15;91.11;100337.25;5264591;28;20743;-77
2021/05/23 08:52:30;;;;;;;2.88;1.70;;;;;;;13.66;94.56;100343.38;5265996;28;20028;-77
2021/05/23 08:55:00;;;;;;;4.22;2.17;;;;;;;13.82;95.76;100349.53;5264541;28;20447;-76
2021/05/23 08:57:30;;;;;;;3.55;1.70;;;;;;;14.35;93.66;100344.94;5260858;28;20027;-77
2021/05/23 09:00:03;;;;;;;4.18;1.80;;;;;;;13.96;94.96;100352.31;5270554;28;20047;-77
2021/05/23 09:02:34;;;;;;;4.18;2.10;;;;;;;13.50;94.33;100355.59;5269272;28;20031;-77
2021/05/23 09:05:04;;;;;;;3.80;2.03;;;;;;;13.51;96.42;100359.94;5262306;28;20031;-77
2021/05/23 09:07:45;;;;;;;5.63;2.20;;;;;;;13.97;96.61;100356.63;5270603;28;20020;-75
2021/05/23 09:10:26;;;;;;;3.97;2.28;;;;;;;14.27;95.07;100368.19;5268651;28;20107;-77
2021/05/23 09:12:56;;;;;;;4.13;1.88;;;;;;;14.70;92.06;100357.84;5267800;28;20043;-76
2021/05/23 09:15:27;;;;;;;6.15;2.58;;;;;;;14.90;93.51;100355.81;5271844;28;20055;-76
2021/05/23 09:18:08;;;;;;;4.60;2.08;;;;;;;15.15;92.42;100371.06;5273236;28;20020;-76
2021/05/23 09:20:41;;;;;;;3.53;1.90;;;;;;;15.43;86.04;100358.00;5272091;28;20020;-78
2021/05/23 09:23:14;;;;;;;3.20;1.70;;;;;;;15.76;85.87;100359.50;5268830;28;20020;-77
2021/05/23 09:25:44;;;;;;;3.47;1.70;;;;;;;15.80;87.79;100368.91;5266770;28;20031;-77
2021/05/23 09:28:15;;;;;;;2.03;1.45;;;;;;;15.36;87.62;100373.31;5276615;28;20032;-77
2021/05/23 09:30:47;;;;;;;2.92;1.52;;;;;;;15.55;89.43;100363.38;5271467;28;20074;-77
2021/05/23 09:33:19;;;;;;;2.35;1.27;;;;;;;16.16;89.61;100374.56;5267141;28;20020;-76
2021/05/23 09:35:53;;;;;;;1.98;1.23;;;;;;;15.61;90.86;100376.22;5267683;28;20024;-75
2021/05/23 09:38:23;;;;;;;4.15;1.70;;;;;;;15.10;90.92;100373.94;5272096;28;20034;-78
2021/05/23 09:40:54;;;;;;;2.45;1.75;;;;;;;14.67;95.36;100379.06;5267899;28;20055;-75
2021/05/23 09:43:26;;;;;;;4.15;1.90;;;;;;;15.19;93.55;100388.38;5272934;28;20043;-77
2021/05/23 09:45:56;;;;;;;3.35;1.98;;;;;;;15.01;93.00;100392.03;5271702;28;20477;-76
2021/05/23 09:48:27;;;;;;;4.70;2.30;;;;;;;14.94;92.90;100398.56;5267177;28;20046;-76
2021/05/23 09:51:09;;;;;;;5.40;2.38;;;;;;;14.26;96.43;100408.53;5268790;28;20584;-75
2021/05/23 09:53:42;;;;;;;3.50;1.70;;;;;;;14.45;93.75;100407.47;5259167;28;20571;-77
2021/05/23 09:56:13;;;;;;;4.88;1.90;;;;;;;14.96;93.80;100405.47;5264014;28;20177;-76
2021/05/23 09:58:50;;;;;;;2.80;1.67;;;;;;;15.10;93.93;100402.03;5268288;28;20046;-76
2021/05/23 10:01:31;;;;;;;3.40;1.40;;;;;;;15.08;92.76;100407.41;5270187;28;20031;-76
2021/05/23 10:04:02;;;;;;;2.88;1.48;;;;;;;15.19;92.00;100410.25;5255079;28;20096;-76
2021/05/23 10:06:35;;;;;;;3.85;1.50;;;;;;;14.98;94.00;100416.75;5279948;28;20038;-76
2021/05/23 10:09:07;;;;;;;2.17;1.35;;;;;;;15.40;92.17;100408.22;5275720;28;20043;-77
2021/05/23 10:11:37;;;;;;;2.00;1.30;;;;;;;14.95;89.16;100411.66;5271179;28;20397;-77
2021/05/23 10:14:08;;;;;;;2.42;1.60;;;;;;;15.87;92.39;100411.56;5269653;28;20039;-76
2021/05/23 10:16:38;;;;;;;2.40;1.35;;;;;;;16.37;89.87;100418.13;5270797;28;20131;-77
2021/05/23 10:19:11;;;;;;;1.83;1.10;;;;;;;16.56;84.98;100409.94;5272015;28;20051;-76
2021/05/23 10:21:46;;;;;;;3.10;1.30;;;;;;;17.15;84.34;100402.53;5269782;28;20023;-77
2021/05/23 10:24:54;;;;;;;2.07;1.23;;;;;;;16.98;85.54;100418.63;5269534;28;20028;-76
2021/05/23 10:27:25;;;;;;;1.80;1.40;;;;;;;16.33;84.81;100408.69;5269700;28;20090;-76
2021/05/23 10:29:57;;;;;;;2.08;1.50;;;;;;;16.63;88.08;100414.72;5274184;28;20080;-76
2021/05/23 10:32:30;;;;;;;2.28;1.40;;;;;;;16.18;82.72;100419.31;5272756;28;20572;-77
2021/05/23 10:35:21;;;;;;;3.05;1.50;;;;;;;16.46;84.69;100414.94;5263009;28;20113;-77
2021/05/23 10:37:53;;;;;;;1.23;1.13;;;;;;;16.36;83.12;100419.06;5272146;28;20030;-76
2021/05/23 10:40:26;;;;;;;2.00;1.40;;;;;;;16.33;81.98;100427.13;5267034;28;20060;-76
2021/05/23 10:42:59;;;;;;;2.65;1.48;;;;;;;16.60;84.52;100428.13;5270975;28;20047;-77
2021/05/23 10:45:32;;;;;;;2.22;1.40;;;;;;;17.11;81.47;100424.81;5270891;28;20040;-76
2021/05/23 10:48:15;;;;;;;1.98;1.30;;;;;;;16.96;84.09;100425.78;5269887;28;20035;-77
2021/05/23 10:50:47;;;;;;;1.98;1.40;;;;;;;16.78;83.06;100433.06;5271442;28;20079;-77
2021/05/23 10:53:17;;;;;;;1.92;1.30;;;;;;;16.67;80.29;100425.91;5261329;28;20528;-77
2021/05/23 10:55:57;;;;;;;2.03;1.40;;;;;;;16.03;83.38;100436.06;5268544;28;20107;-77
2021/05/23 10:58:28;;;;;;;2.35;1.30;;;;;;;16.08;80.21;100434.81;5268497;28;20034;-77
2021/05/23 11:01:00;;;;;;;3.40;1.50;;;;;;;15.94;81.52;100434.81;5274440;28;20019;-76
2021/05/23 11:03:30;;;;;;;2.13;1.63;;;;;;;15.44;82.22;100439.56;5263735;28;20054;-77
2021/05/23 11:06:00;;;;;;;3.30;2.38;;;;;;;15.09;84.90;100445.97;5262270;28;20040;-76
2021/05/23 11:08:32;;;;;;;1.95;1.40;;;;;;;14.85;86.01;100452.56;5264943;28;20020;-77
2021/05/23 11:11:03;;;;;;;1.90;1.20;;;;;;;14.52;89.55;100456.19;5264331;28;20484;-77
2021/05/23 11:13:37;;;;;;;1.65;1.25;;;;;;;14.34;90.51;100466.81;5265171;28;20431;-77
2021/05/23 11:16:17;;;;;;;2.85;1.15;;;;;;;13.95;91.71;100460.97;5263646;28;20146;-76
2021/05/23 11:18:47;;;;;;;2.90;1.23;;;;;;;14.06;93.54;100469.16;5265527;28;20101;-77
2021/05/23 11:21:17;;;;;;;1.70;1.10;;;;;;;14.31;93.71;100472.22;5267040;28;20628;-77
2021/05/23 11:23:52;;;;;;;2.55;1.23;;;;;;;14.80;94.77;100463.44;5264828;28;20124;-76
2021/05/23 11:26:25;;;;;;;2.08;1.20;;;;;;;15.19;96.52;100468.19;5270230;28;20044;-77
2021/05/23 11:28:59;;;;;;;1.60;1.20;;;;;;;15.14;95.08;100464.09;5274308;28;20128;-77
2021/05/23 11:31:34;;;;;;;1.80;1.10;;;;;;;15.00;93.22;100475.41;5271395;28;20139;-76
2021/05/23 11:34:07;;;;;;;1.67;1.10;;;;;;;14.76;91.16;100475.91;5267284;28;20035;-77
2021/05/23 11:36:39;;;;;;;1.33;0.98;;;;;;;14.66;93.31;100487.88;5268613;28;20126;-76
2021/05/23 11:39:12;;;;;;;2.08;1.30;;;;;;;14.78;91.78;100488.97;5273176;28;20424;-76
2021/05/23 11:41:46;;;;;;;2.40;1.00;;;;;;;14.70;90.30;100484.13;5268910;28;20554;-77
2021/05/23 11:44:18;;;;;;;1.80;1.00;;;;;;;15.46;90.60;100485.09;5273603;28;20115;-76